sensor_id;sensor_type;location;lat;lon;timestamp;pressure;altitude;pressure_sealevel;temperature;humidity
62436;BME280;48480;50.252;18.848;2023-12-14T00:00:57;97301.34;;;5.89;88.44
62436;BME280;48480;50.252;18.848;2023-12-14T00:03:41;97300.62;;;5.87;88.27
62436;BME280;48480;50.252;18.848;2023-12-14T00:06:27;97302.50;;;5.84;88.34
62436;BME280;48480;50.252;18.848;2023-12-14T00:09:12;97305.15;;;5.82;88.29
62436;BME280;48480;50.252;18.848;2023-12-14T00:11:57;97308.67;;;5.84;88.18
62436;BME280;48480;50.252;18.848;2023-12-14T00:14:41;97310.11;;;5.90;88.07
62436;BME280;48480;50.252;18.848;2023-12-14T00:17:25;97311.33;;;5.94;88.04
62436;BME280;48480;50.252;18.848;2023-12-14T00:20:09;97319.96;;;5.95;88.10
62436;BME280;48480;50.252;18.848;2023-12-14T00:22:54;97327.38;;;5.93;88.13
62436;BME280;48480;50.252;18.848;2023-12-14T00:25:38;97333.48;;;5.90;88.31
62436;BME280;48480;50.252;18.848;2023-12-14T00:28:22;97337.91;;;5.87;88.39
62436;BME280;48480;50.252;18.848;2023-12-14T00:31:07;97343.11;;;5.84;88.40
62436;BME280;48480;50.252;18.848;2023-12-14T00:33:51;97343.92;;;5.80;88.44
62436;BME280;48480;50.252;18.848;2023-12-14T00:36:35;97354.37;;;5.76;88.35
62436;BME280;48480;50.252;18.848;2023-12-14T00:39:19;97361.66;;;5.78;88.40
62436;BME280;48480;50.252;18.848;2023-12-14T00:42:03;97367.05;;;5.83;88.33
62436;BME280;48480;50.252;18.848;2023-12-14T00:44:47;97372.30;;;5.89;88.26
62436;BME280;48480;50.252;18.848;2023-12-14T00:47:32;97372.31;;;5.93;88.13
62436;BME280;48480;50.252;18.848;2023-12-14T00:50:17;97371.86;;;5.91;87.98
62436;BME280;48480;50.252;18.848;2023-12-14T00:53:01;97374.05;;;5.84;87.79
62436;BME280;48480;50.252;18.848;2023-12-14T00:55:45;97379.13;;;5.76;87.96
62436;BME280;48480;50.252;18.848;2023-12-14T00:58:29;97382.53;;;5.70;88.16
62436;BME280;48480;50.252;18.848;2023-12-14T01:01:13;97380.87;;;5.67;88.42
62436;BME280;48480;50.252;18.848;2023-12-14T01:03:57;97365.23;;;5.56;88.39
62436;BME280;48480;50.252;18.848;2023-12-14T01:06:43;97366.48;;;5.56;88.19
62436;BME280;48480;50.252;18.848;2023-12-14T01:09:27;97382.86;;;5.66;87.97
62436;BME280;48480;50.252;18.848;2023-12-14T01:12:11;97386.66;;;5.67;87.98
62436;BME280;48480;50.252;18.848;2023-12-14T01:14:55;97386.81;;;5.67;87.93
62436;BME280;48480;50.252;18.848;2023-12-14T01:17:38;97386.10;;;5.62;87.77
62436;BME280;48480;50.252;18.848;2023-12-14T01:20:22;97386.18;;;5.57;88.28
62436;BME280;48480;50.252;18.848;2023-12-14T01:23:07;97385.48;;;5.54;88.47
62436;BME280;48480;50.252;18.848;2023-12-14T01:25:53;97387.20;;;5.49;88.60
62436;BME280;48480;50.252;18.848;2023-12-14T01:28:37;97389.92;;;5.43;88.46
62436;BME280;48480;50.252;18.848;2023-12-14T01:31:21;97388.13;;;5.39;88.45
62436;BME280;48480;50.252;18.848;2023-12-14T01:34:08;97387.19;;;5.40;88.80
62436;BME280;48480;50.252;18.848;2023-12-14T01:36:55;97383.59;;;5.45;88.60
62436;BME280;48480;50.252;18.848;2023-12-14T01:39:40;97377.85;;;5.53;88.63
62436;BME280;48480;50.252;18.848;2023-12-14T01:42:24;97377.45;;;5.56;88.36
62436;BME280;48480;50.252;18.848;2023-12-14T01:45:08;97377.75;;;5.51;88.20
62436;BME280;48480;50.252;18.848;2023-12-14T01:47:52;97375.33;;;5.48;88.48
62436;BME280;48480;50.252;18.848;2023-12-14T01:50:36;97374.16;;;5.47;88.54
62436;BME280;48480;50.252;18.848;2023-12-14T01:53:21;97374.79;;;5.48;88.65
62436;BME280;48480;50.252;18.848;2023-12-14T01:56:05;97376.82;;;5.47;88.56
62436;BME280;48480;50.252;18.848;2023-12-14T01:58:49;97381.83;;;5.45;88.75
62436;BME280;48480;50.252;18.848;2023-12-14T02:01:43;97381.52;;;5.47;88.75
62436;BME280;48480;50.252;18.848;2023-12-14T02:04:27;97384.63;;;5.52;88.68
62436;BME280;48480;50.252;18.848;2023-12-14T02:07:12;97382.84;;;5.57;88.61
62436;BME280;48480;50.252;18.848;2023-12-14T02:09:56;97380.38;;;5.61;88.56
62436;BME280;48480;50.252;18.848;2023-12-14T02:12:40;97382.95;;;5.64;88.45
62436;BME280;48480;50.252;18.848;2023-12-14T02:15:24;97384.10;;;5.65;88.46
62436;BME280;48480;50.252;18.848;2023-12-14T02:18:08;97388.71;;;5.66;88.53
62436;BME280;48480;50.252;18.848;2023-12-14T02:20:52;97385.16;;;5.65;88.46
62436;BME280;48480;50.252;18.848;2023-12-14T02:23:46;97390.74;;;5.63;88.19
62436;BME280;48480;50.252;18.848;2023-12-14T02:26:30;97392.20;;;5.57;88.05
62436;BME280;48480;50.252;18.848;2023-12-14T02:29:14;97397.24;;;5.52;87.94
62436;BME280;48480;50.252;18.848;2023-12-14T02:31:58;97398.84;;;5.53;87.89
62436;BME280;48480;50.252;18.848;2023-12-14T02:34:42;97402.09;;;5.59;87.71
62436;BME280;48480;50.252;18.848;2023-12-14T02:37:26;97404.05;;;5.65;87.62
62436;BME280;48480;50.252;18.848;2023-12-14T02:40:10;97404.71;;;5.66;87.64
62436;BME280;48480;50.252;18.848;2023-12-14T02:42:55;97408.13;;;5.62;87.47
62436;BME280;48480;50.252;18.848;2023-12-14T02:45:39;97415.45;;;5.57;87.52
62436;BME280;48480;50.252;18.848;2023-12-14T02:48:23;97416.45;;;5.53;87.67
62436;BME280;48480;50.252;18.848;2023-12-14T02:51:07;97421.67;;;5.47;87.68
62436;BME280;48480;50.252;18.848;2023-12-14T02:53:51;97425.80;;;5.43;87.74
62436;BME280;48480;50.252;18.848;2023-12-14T02:56:35;97425.75;;;5.39;87.75
62436;BME280;48480;50.252;18.848;2023-12-14T02:59:19;97427.73;;;5.39;87.68
62436;BME280;48480;50.252;18.848;2023-12-14T03:02:03;97432.27;;;5.43;87.60
62436;BME280;48480;50.252;18.848;2023-12-14T03:04:47;97434.06;;;5.48;87.53
62436;BME280;48480;50.252;18.848;2023-12-14T03:07:31;97431.44;;;5.50;87.45
62436;BME280;48480;50.252;18.848;2023-12-14T03:10:15;97437.31;;;5.49;87.49
62436;BME280;48480;50.252;18.848;2023-12-14T03:12:59;97444.08;;;5.44;87.48
62436;BME280;48480;50.252;18.848;2023-12-14T03:15:43;97444.91;;;5.39;87.56
62436;BME280;48480;50.252;18.848;2023-12-14T03:18:27;97448.17;;;5.34;87.65
62436;BME280;48480;50.252;18.848;2023-12-14T03:21:11;97451.27;;;5.29;87.64
62436;BME280;48480;50.252;18.848;2023-12-14T03:23:55;97455.14;;;5.26;87.75
62436;BME280;48480;50.252;18.848;2023-12-14T03:26:39;97457.92;;;5.23;87.65
62436;BME280;48480;50.252;18.848;2023-12-14T03:29:23;97465.79;;;5.23;87.67
62436;BME280;48480;50.252;18.848;2023-12-14T03:32:07;97471.58;;;5.30;87.83
62436;BME280;48480;50.252;18.848;2023-12-14T03:34:50;97475.34;;;5.37;87.74
62436;BME280;48480;50.252;18.848;2023-12-14T03:37:35;97478.13;;;5.38;87.60
62436;BME280;48480;50.252;18.848;2023-12-14T03:40:19;97486.17;;;5.36;87.60
62436;BME280;48480;50.252;18.848;2023-12-14T03:43:04;97492.36;;;5.31;87.64
62436;BME280;48480;50.252;18.848;2023-12-14T03:45:48;97495.05;;;5.27;87.73
62436;BME280;48480;50.252;18.848;2023-12-14T03:48:33;97499.23;;;5.24;87.80
62436;BME280;48480;50.252;18.848;2023-12-14T03:51:20;97501.41;;;5.21;87.86
62436;BME280;48480;50.252;18.848;2023-12-14T03:54:04;97505.65;;;5.24;87.84
62436;BME280;48480;50.252;18.848;2023-12-14T03:56:48;97508.60;;;5.32;87.79
62436;BME280;48480;50.252;18.848;2023-12-14T03:59:31;97510.52;;;5.38;87.63
62436;BME280;48480;50.252;18.848;2023-12-14T04:02:16;97513.77;;;5.47;87.49
62436;BME280;48480;50.252;18.848;2023-12-14T04:05:00;97518.66;;;5.53;87.31
62436;BME280;48480;50.252;18.848;2023-12-14T04:07:44;97522.84;;;5.54;87.26
62436;BME280;48480;50.252;18.848;2023-12-14T04:10:28;97524.73;;;5.53;87.30
62436;BME280;48480;50.252;18.848;2023-12-14T04:13:11;97526.23;;;5.50;87.34
62436;BME280;48480;50.252;18.848;2023-12-14T04:15:55;97530.77;;;5.47;87.39
62436;BME280;48480;50.252;18.848;2023-12-14T04:18:39;97531.67;;;5.43;87.46
62436;BME280;48480;50.252;18.848;2023-12-14T04:21:24;97537.45;;;5.42;87.39
62436;BME280;48480;50.252;18.848;2023-12-14T04:24:08;97542.24;;;5.39;87.33
62436;BME280;48480;50.252;18.848;2023-12-14T04:26:53;97543.47;;;5.39;87.24
62436;BME280;48480;50.252;18.848;2023-12-14T04:29:36;97543.94;;;5.46;87.16
62436;BME280;48480;50.252;18.848;2023-12-14T04:32:20;97547.77;;;5.53;87.07
62436;BME280;48480;50.252;18.848;2023-12-14T04:35:06;97551.25;;;5.54;87.03
62436;BME280;48480;50.252;18.848;2023-12-14T04:37:50;97555.11;;;5.53;87.17
62436;BME280;48480;50.252;18.848;2023-12-14T04:40:34;97559.66;;;5.52;87.18
62436;BME280;48480;50.252;18.848;2023-12-14T04:43:19;97563.14;;;5.48;87.11
62436;BME280;48480;50.252;18.848;2023-12-14T04:46:03;97567.03;;;5.44;87.23
62436;BME280;48480;50.252;18.848;2023-12-14T04:48:47;97569.86;;;5.41;87.23
62436;BME280;48480;50.252;18.848;2023-12-14T04:51:31;97574.04;;;5.40;87.37
62436;BME280;48480;50.252;18.848;2023-12-14T04:54:16;97580.06;;;5.41;87.40
62436;BME280;48480;50.252;18.848;2023-12-14T04:57:00;97579.95;;;5.49;87.29
62436;BME280;48480;50.252;18.848;2023-12-14T04:59:44;97583.81;;;5.54;87.10
62436;BME280;48480;50.252;18.848;2023-12-14T05:02:28;97591.41;;;5.55;87.16
62436;BME280;48480;50.252;18.848;2023-12-14T05:05:12;97593.86;;;5.50;87.32
62436;BME280;48480;50.252;18.848;2023-12-14T05:07:56;97599.66;;;5.48;87.66
62436;BME280;48480;50.252;18.848;2023-12-14T05:10:39;97604.16;;;5.46;87.67
62436;BME280;48480;50.252;18.848;2023-12-14T05:13:23;97608.95;;;5.43;87.72
62436;BME280;48480;50.252;18.848;2023-12-14T05:16:13;97610.63;;;5.40;87.91
62436;BME280;48480;50.252;18.848;2023-12-14T05:18:58;97610.05;;;5.40;87.84
62436;BME280;48480;50.252;18.848;2023-12-14T05:21:42;97612.21;;;5.43;87.82
62436;BME280;48480;50.252;18.848;2023-12-14T05:24:26;97614.84;;;5.47;87.78
62436;BME280;48480;50.252;18.848;2023-12-14T05:27:10;97621.64;;;5.54;87.81
62436;BME280;48480;50.252;18.848;2023-12-14T05:29:54;97622.59;;;5.56;87.78
62436;BME280;48480;50.252;18.848;2023-12-14T05:32:38;97623.13;;;5.54;87.65
62436;BME280;48480;50.252;18.848;2023-12-14T05:35:22;97629.80;;;5.51;87.88
62436;BME280;48480;50.252;18.848;2023-12-14T05:38:06;97631.13;;;5.49;87.90
62436;BME280;48480;50.252;18.848;2023-12-14T05:40:51;97636.39;;;5.47;88.04
62436;BME280;48480;50.252;18.848;2023-12-14T05:43:35;97640.45;;;5.41;88.08
62436;BME280;48480;50.252;18.848;2023-12-14T05:46:21;97640.63;;;5.36;88.39
62436;BME280;48480;50.252;18.848;2023-12-14T05:49:05;97645.28;;;5.37;88.47
62436;BME280;48480;50.252;18.848;2023-12-14T05:51:49;97653.35;;;5.42;88.45
62436;BME280;48480;50.252;18.848;2023-12-14T05:54:33;97655.14;;;5.46;88.30
62436;BME280;48480;50.252;18.848;2023-12-14T05:57:19;97660.02;;;5.48;88.37
62436;BME280;48480;50.252;18.848;2023-12-14T06:00:07;97663.64;;;5.49;88.45
62436;BME280;48480;50.252;18.848;2023-12-14T06:02:51;97664.45;;;5.45;88.47
62436;BME280;48480;50.252;18.848;2023-12-14T06:05:36;97669.27;;;5.41;88.55
62436;BME280;48480;50.252;18.848;2023-12-14T06:08:20;97671.71;;;5.37;88.70
62436;BME280;48480;50.252;18.848;2023-12-14T06:11:04;97675.19;;;5.34;88.79
62436;BME280;48480;50.252;18.848;2023-12-14T06:13:50;97677.55;;;5.33;88.92
62436;BME280;48480;50.252;18.848;2023-12-14T06:16:33;97681.20;;;5.36;88.91
62436;BME280;48480;50.252;18.848;2023-12-14T06:19:18;97685.12;;;5.42;88.84
62436;BME280;48480;50.252;18.848;2023-12-14T06:22:02;97689.15;;;5.50;88.79
62436;BME280;48480;50.252;18.848;2023-12-14T06:24:46;97696.30;;;5.59;88.81
62436;BME280;48480;50.252;18.848;2023-12-14T06:27:30;97697.42;;;5.63;88.70
62436;BME280;48480;50.252;18.848;2023-12-14T06:30:14;97698.86;;;5.62;88.48
62436;BME280;48480;50.252;18.848;2023-12-14T06:32:58;97701.76;;;5.60;88.42
62436;BME280;48480;50.252;18.848;2023-12-14T06:35:43;97707.94;;;5.56;88.59
62436;BME280;48480;50.252;18.848;2023-12-14T06:38:27;97709.59;;;5.54;88.59
62436;BME280;48480;50.252;18.848;2023-12-14T06:41:22;97714.88;;;5.52;88.68
62436;BME280;48480;50.252;18.848;2023-12-14T06:44:06;97716.59;;;5.48;88.70
62436;BME280;48480;50.252;18.848;2023-12-14T06:46:52;97725.41;;;5.51;88.61
62436;BME280;48480;50.252;18.848;2023-12-14T06:49:37;97723.95;;;5.57;88.56
62436;BME280;48480;50.252;18.848;2023-12-14T06:52:21;97727.77;;;5.62;88.40
62436;BME280;48480;50.252;18.848;2023-12-14T06:55:05;97731.39;;;5.62;88.28
62436;BME280;48480;50.252;18.848;2023-12-14T06:57:50;97738.90;;;5.59;88.23
62436;BME280;48480;50.252;18.848;2023-12-14T07:00:34;97744.83;;;5.54;88.20
62436;BME280;48480;50.252;18.848;2023-12-14T07:03:18;97745.22;;;5.48;88.35
62436;BME280;48480;50.252;18.848;2023-12-14T07:06:02;97747.54;;;5.46;88.62
62436;BME280;48480;50.252;18.848;2023-12-14T07:08:46;97748.92;;;5.44;88.57
62436;BME280;48480;50.252;18.848;2023-12-14T07:11:31;97749.81;;;5.41;88.52
62436;BME280;48480;50.252;18.848;2023-12-14T07:14:15;97749.52;;;5.40;88.36
62436;BME280;48480;50.252;18.848;2023-12-14T07:19:57;97760.90;;;5.58;88.84
62436;BME280;48480;50.252;18.848;2023-12-14T07:22:41;97765.41;;;5.66;88.76
62436;BME280;48480;50.252;18.848;2023-12-14T07:25:25;97771.75;;;5.71;88.71
62436;BME280;48480;50.252;18.848;2023-12-14T07:28:09;97775.25;;;5.75;88.54
62436;BME280;48480;50.252;18.848;2023-12-14T07:30:53;97782.58;;;5.77;88.38
62436;BME280;48480;50.252;18.848;2023-12-14T07:33:37;97787.45;;;5.78;88.45
62436;BME280;48480;50.252;18.848;2023-12-14T07:36:21;97790.35;;;5.76;88.44
62436;BME280;48480;50.252;18.848;2023-12-14T07:39:06;97793.43;;;5.73;88.46
62436;BME280;48480;50.252;18.848;2023-12-14T07:41:50;97794.67;;;5.69;88.44
62436;BME280;48480;50.252;18.848;2023-12-14T07:44:35;97797.77;;;5.71;88.40
62436;BME280;48480;50.252;18.848;2023-12-14T07:47:19;97797.29;;;5.74;88.44
62436;BME280;48480;50.252;18.848;2023-12-14T07:50:04;97804.26;;;5.79;88.41
62436;BME280;48480;50.252;18.848;2023-12-14T07:52:48;97811.06;;;5.84;88.01
62436;BME280;48480;50.252;18.848;2023-12-14T07:55:32;97820.35;;;5.86;87.86
62436;BME280;48480;50.252;18.848;2023-12-14T07:58:17;97831.90;;;5.85;87.73
62436;BME280;48480;50.252;18.848;2023-12-14T08:01:01;97836.59;;;5.85;87.53
62436;BME280;48480;50.252;18.848;2023-12-14T08:03:45;97837.89;;;5.84;87.53
62436;BME280;48480;50.252;18.848;2023-12-14T08:06:30;97844.33;;;5.82;87.58
62436;BME280;48480;50.252;18.848;2023-12-14T08:09:14;97847.09;;;5.79;87.51
62436;BME280;48480;50.252;18.848;2023-12-14T08:11:58;97850.07;;;5.77;87.61
62436;BME280;48480;50.252;18.848;2023-12-14T08:14:42;97852.20;;;5.74;87.55
62436;BME280;48480;50.252;18.848;2023-12-14T08:17:27;97858.64;;;5.77;87.44
62436;BME280;48480;50.252;18.848;2023-12-14T08:20:11;97860.30;;;5.81;87.24
62436;BME280;48480;50.252;18.848;2023-12-14T08:22:56;97861.70;;;5.83;87.20
62436;BME280;48480;50.252;18.848;2023-12-14T08:25:41;97868.17;;;5.87;87.34
62436;BME280;48480;50.252;18.848;2023-12-14T08:28:25;97874.80;;;5.86;87.19
62436;BME280;48480;50.252;18.848;2023-12-14T08:31:09;97873.71;;;5.84;87.22
62436;BME280;48480;50.252;18.848;2023-12-14T08:33:55;97876.70;;;5.81;87.15
62436;BME280;48480;50.252;18.848;2023-12-14T08:36:39;97876.40;;;5.78;87.06
62436;BME280;48480;50.252;18.848;2023-12-14T08:39:23;97877.44;;;5.74;87.03
62436;BME280;48480;50.252;18.848;2023-12-14T08:42:07;97880.30;;;5.72;87.07
62436;BME280;48480;50.252;18.848;2023-12-14T08:44:50;97875.97;;;5.68;87.04
62436;BME280;48480;50.252;18.848;2023-12-14T08:47:34;97893.36;;;5.81;86.67
62436;BME280;48480;50.252;18.848;2023-12-14T08:50:18;97892.58;;;5.81;86.60
62436;BME280;48480;50.252;18.848;2023-12-14T08:53:03;97904.06;;;5.90;86.68
62436;BME280;48480;50.252;18.848;2023-12-14T08:55:49;97907.77;;;5.91;86.80
62436;BME280;48480;50.252;18.848;2023-12-14T08:58:33;97915.65;;;5.90;86.73
62436;BME280;48480;50.252;18.848;2023-12-14T09:01:21;97920.84;;;5.89;86.68
62436;BME280;48480;50.252;18.848;2023-12-14T09:04:05;97925.21;;;5.89;86.73
62436;BME280;48480;50.252;18.848;2023-12-14T09:06:50;97930.60;;;5.88;86.62
62436;BME280;48480;50.252;18.848;2023-12-14T09:09:35;97935.27;;;5.86;86.64
62436;BME280;48480;50.252;18.848;2023-12-14T09:12:19;97936.44;;;5.87;86.58
62436;BME280;48480;50.252;18.848;2023-12-14T09:15:03;97942.25;;;5.91;86.34
62436;BME280;48480;50.252;18.848;2023-12-14T09:17:48;97944.11;;;5.95;86.16
62436;BME280;48480;50.252;18.848;2023-12-14T09:20:32;97946.77;;;5.96;86.16
62436;BME280;48480;50.252;18.848;2023-12-14T09:23:17;97947.94;;;5.96;86.25
62436;BME280;48480;50.252;18.848;2023-12-14T09:26:02;97953.45;;;5.93;86.24
62436;BME280;48480;50.252;18.848;2023-12-14T09:28:46;97953.96;;;5.91;86.40
62436;BME280;48480;50.252;18.848;2023-12-14T09:31:30;97956.15;;;5.91;86.50
62436;BME280;48480;50.252;18.848;2023-12-14T09:34:14;97958.20;;;5.91;86.61
62436;BME280;48480;50.252;18.848;2023-12-14T09:36:58;97957.03;;;5.90;86.51
62436;BME280;48480;50.252;18.848;2023-12-14T09:39:42;97958.69;;;5.93;86.29
62436;BME280;48480;50.252;18.848;2023-12-14T09:42:26;97961.04;;;5.98;86.26
62436;BME280;48480;50.252;18.848;2023-12-14T09:45:11;97965.60;;;6.05;86.22
62436;BME280;48480;50.252;18.848;2023-12-14T09:47:57;97962.94;;;6.08;86.04
62436;BME280;48480;50.252;18.848;2023-12-14T09:50:42;97963.86;;;6.05;85.81
62436;BME280;48480;50.252;18.848;2023-12-14T09:53:27;97966.35;;;6.00;85.91
62436;BME280;48480;50.252;18.848;2023-12-14T09:56:11;97968.48;;;5.96;86.10
62436;BME280;48480;50.252;18.848;2023-12-14T09:58:55;97973.67;;;5.94;86.19
62436;BME280;48480;50.252;18.848;2023-12-14T10:01:40;97979.55;;;5.92;86.19
62436;BME280;48480;50.252;18.848;2023-12-14T10:04:25;97982.24;;;5.91;86.22
62436;BME280;48480;50.252;18.848;2023-12-14T10:07:09;97987.93;;;5.92;86.05
62436;BME280;48480;50.252;18.848;2023-12-14T10:09:53;97985.98;;;5.95;85.99
62436;BME280;48480;50.252;18.848;2023-12-14T10:12:53;97984.40;;;5.99;86.03
62436;BME280;48480;50.252;18.848;2023-12-14T10:15:44;97982.05;;;6.05;85.96
62436;BME280;48480;50.252;18.848;2023-12-14T10:18:31;97983.67;;;6.04;85.77
62436;BME280;48480;50.252;18.848;2023-12-14T10:21:16;97986.75;;;5.99;85.86
62436;BME280;48480;50.252;18.848;2023-12-14T10:24:01;97984.25;;;5.95;85.94
62436;BME280;48480;50.252;18.848;2023-12-14T10:26:45;97984.45;;;5.84;85.51
62436;BME280;48480;50.252;18.848;2023-12-14T10:29:32;97987.45;;;5.65;85.74
62436;BME280;48480;50.252;18.848;2023-12-14T10:32:17;97988.13;;;5.52;86.53
62436;BME280;48480;50.252;18.848;2023-12-14T10:35:03;97988.41;;;5.53;86.59
62436;BME280;48480;50.252;18.848;2023-12-14T10:37:49;97987.45;;;5.56;86.54
62436;BME280;48480;50.252;18.848;2023-12-14T10:40:34;97993.64;;;5.62;86.92
62436;BME280;48480;50.252;18.848;2023-12-14T10:43:20;97998.45;;;5.66;87.01
62436;BME280;48480;50.252;18.848;2023-12-14T10:46:09;98004.05;;;5.66;86.99
62436;BME280;48480;50.252;18.848;2023-12-14T10:48:53;98003.84;;;5.57;86.67
62436;BME280;48480;50.252;18.848;2023-12-14T10:51:38;98010.92;;;5.46;87.06
62436;BME280;48480;50.252;18.848;2023-12-14T10:54:26;98016.73;;;5.36;87.27
62436;BME280;48480;50.252;18.848;2023-12-14T10:57:12;98021.08;;;5.31;87.48
62436;BME280;48480;50.252;18.848;2023-12-14T11:00:00;98016.27;;;5.33;87.70
62436;BME280;48480;50.252;18.848;2023-12-14T11:02:46;98022.34;;;5.39;87.74
62436;BME280;48480;50.252;18.848;2023-12-14T11:05:33;98027.00;;;5.40;87.81
62436;BME280;48480;50.252;18.848;2023-12-14T11:08:18;98030.27;;;5.32;87.79
62436;BME280;48480;50.252;18.848;2023-12-14T11:11:04;98037.89;;;5.25;88.27
62436;BME280;48480;50.252;18.848;2023-12-14T11:13:54;98038.13;;;5.19;88.56
62436;BME280;48480;50.252;18.848;2023-12-14T11:16:39;98039.29;;;5.20;88.92
62436;BME280;48480;50.252;18.848;2023-12-14T11:19:29;98042.96;;;5.26;88.81
62436;BME280;48480;50.252;18.848;2023-12-14T11:22:24;98051.16;;;5.30;88.61
62436;BME280;48480;50.252;18.848;2023-12-14T11:25:08;98048.69;;;5.35;88.65
62436;BME280;48480;50.252;18.848;2023-12-14T11:27:53;98048.69;;;5.34;88.64
62436;BME280;48480;50.252;18.848;2023-12-14T11:30:37;98056.33;;;5.32;88.81
62436;BME280;48480;50.252;18.848;2023-12-14T11:33:22;98058.46;;;5.26;88.95
62436;BME280;48480;50.252;18.848;2023-12-14T11:36:07;98055.38;;;5.22;89.24
62436;BME280;48480;50.252;18.848;2023-12-14T11:38:54;98057.23;;;5.19;89.63
62436;BME280;48480;50.252;18.848;2023-12-14T11:41:39;98058.39;;;5.20;89.58
62436;BME280;48480;50.252;18.848;2023-12-14T11:44:25;98056.77;;;5.22;89.63
62436;BME280;48480;50.252;18.848;2023-12-14T11:47:09;98058.58;;;5.24;89.33
62436;BME280;48480;50.252;18.848;2023-12-14T11:49:53;98065.72;;;5.31;89.33
62436;BME280;48480;50.252;18.848;2023-12-14T11:52:37;98066.37;;;5.36;89.15
62436;BME280;48480;50.252;18.848;2023-12-14T11:55:21;98070.75;;;5.39;88.88
62436;BME280;48480;50.252;18.848;2023-12-14T11:58:05;98069.33;;;5.40;89.16
62436;BME280;48480;50.252;18.848;2023-12-14T12:00:50;98069.94;;;5.46;89.15
62436;BME280;48480;50.252;18.848;2023-12-14T12:03:33;98070.93;;;5.43;88.97
62436;BME280;48480;50.252;18.848;2023-12-14T12:06:26;98068.84;;;5.45;89.37
62436;BME280;48480;50.252;18.848;2023-12-14T12:09:14;98069.44;;;5.51;89.44
62436;BME280;48480;50.252;18.848;2023-12-14T12:11:57;98071.48;;;5.55;89.39
62436;BME280;48480;50.252;18.848;2023-12-14T12:14:42;98072.73;;;5.57;89.19
62436;BME280;48480;50.252;18.848;2023-12-14T12:17:26;98080.25;;;5.61;89.42
62436;BME280;48480;50.252;18.848;2023-12-14T12:20:11;98084.41;;;5.72;89.31
62436;BME280;48480;50.252;18.848;2023-12-14T12:22:55;98085.89;;;5.85;88.90
62436;BME280;48480;50.252;18.848;2023-12-14T12:25:39;98088.82;;;5.96;88.74
62436;BME280;48480;50.252;18.848;2023-12-14T12:28:23;98088.94;;;6.02;88.31
62436;BME280;48480;50.252;18.848;2023-12-14T12:31:07;98091.85;;;6.02;88.19
62436;BME280;48480;50.252;18.848;2023-12-14T12:33:52;98094.45;;;6.03;88.09
62436;BME280;48480;50.252;18.848;2023-12-14T12:36:36;98091.04;;;6.03;88.11
62436;BME280;48480;50.252;18.848;2023-12-14T12:39:20;98094.67;;;6.02;87.98
62436;BME280;48480;50.252;18.848;2023-12-14T12:42:04;98100.54;;;5.99;87.66
62436;BME280;48480;50.252;18.848;2023-12-14T12:44:49;98108.75;;;5.96;87.45
62436;BME280;48480;50.252;18.848;2023-12-14T12:47:33;98114.73;;;5.98;87.29
62436;BME280;48480;50.252;18.848;2023-12-14T12:50:17;98120.48;;;6.03;87.19
62436;BME280;48480;50.252;18.848;2023-12-14T12:53:01;98125.29;;;6.06;87.06
62436;BME280;48480;50.252;18.848;2023-12-14T12:55:45;98128.77;;;6.04;86.94
62436;BME280;48480;50.252;18.848;2023-12-14T12:58:29;98130.25;;;5.99;86.93
62436;BME280;48480;50.252;18.848;2023-12-14T13:01:13;98136.77;;;5.93;87.19
62436;BME280;48480;50.252;18.848;2023-12-14T13:03:57;98147.16;;;5.90;87.32
62436;BME280;48480;50.252;18.848;2023-12-14T13:06:41;98138.52;;;5.77;87.26
62436;BME280;48480;50.252;18.848;2023-12-14T13:09:26;98150.89;;;5.78;87.54
62436;BME280;48480;50.252;18.848;2023-12-14T13:12:10;98155.44;;;5.78;87.84
62436;BME280;48480;50.252;18.848;2023-12-14T13:14:54;98159.05;;;5.82;87.61
62436;BME280;48480;50.252;18.848;2023-12-14T13:17:38;98157.45;;;5.89;87.51
62436;BME280;48480;50.252;18.848;2023-12-14T13:20:22;98159.17;;;5.95;87.29
62436;BME280;48480;50.252;18.848;2023-12-14T13:23:06;98152.48;;;5.93;87.12
62436;BME280;48480;50.252;18.848;2023-12-14T13:25:50;98163.69;;;5.91;86.72
62436;BME280;48480;50.252;18.848;2023-12-14T13:28:35;98174.02;;;5.77;86.97
62436;BME280;48480;50.252;18.848;2023-12-14T13:31:20;98184.39;;;5.67;87.55
62436;BME280;48480;50.252;18.848;2023-12-14T13:34:04;98190.96;;;5.66;87.99
62436;BME280;48480;50.252;18.848;2023-12-14T13:36:49;98198.08;;;5.67;88.04
62436;BME280;48480;50.252;18.848;2023-12-14T13:39:34;98203.11;;;5.69;88.11
62436;BME280;48480;50.252;18.848;2023-12-14T13:42:21;98209.02;;;5.75;87.97
62436;BME280;48480;50.252;18.848;2023-12-14T13:45:05;98213.28;;;5.79;87.69
62436;BME280;48480;50.252;18.848;2023-12-14T13:47:49;98212.92;;;5.81;87.45
62436;BME280;48480;50.252;18.848;2023-12-14T13:50:35;98209.23;;;5.80;87.49
62436;BME280;48480;50.252;18.848;2023-12-14T13:53:19;98220.61;;;5.84;87.40
62436;BME280;48480;50.252;18.848;2023-12-14T13:56:04;98226.56;;;5.81;87.57
62436;BME280;48480;50.252;18.848;2023-12-14T13:58:48;98231.54;;;5.80;87.87
62436;BME280;48480;50.252;18.848;2023-12-14T14:01:32;98235.80;;;5.79;87.89
62436;BME280;48480;50.252;18.848;2023-12-14T14:04:17;98242.30;;;5.74;88.08
62436;BME280;48480;50.252;18.848;2023-12-14T14:07:01;98247.11;;;5.70;88.23
62436;BME280;48480;50.252;18.848;2023-12-14T14:09:45;98253.06;;;5.66;88.36
62436;BME280;48480;50.252;18.848;2023-12-14T14:12:30;98260.79;;;5.70;88.57
62436;BME280;48480;50.252;18.848;2023-12-14T14:15:14;98260.64;;;5.76;88.56
62436;BME280;48480;50.252;18.848;2023-12-14T14:17:57;98260.90;;;5.85;88.42
62436;BME280;48480;50.252;18.848;2023-12-14T14:20:42;98264.61;;;5.94;88.24
62436;BME280;48480;50.252;18.848;2023-12-14T14:23:26;98266.46;;;5.96;87.86
62436;BME280;48480;50.252;18.848;2023-12-14T14:26:11;98270.34;;;5.97;87.77
62436;BME280;48480;50.252;18.848;2023-12-14T14:28:55;98272.96;;;5.94;87.84
62436;BME280;48480;50.252;18.848;2023-12-14T14:31:43;98279.48;;;5.93;87.69
62436;BME280;48480;50.252;18.848;2023-12-14T14:34:28;98285.73;;;5.91;87.67